Time;durP1;ratioP1;P1;durP2;ratioP2;P2;SDS_P1;SDS_P2;PMS_P1;PMS_P2;Temp;Humidity;BMP_temperature;BMP_pressure;BME280_temperature;BME280_humidity;BME280_pressure;Samples;Min_cycle;Max_cycle;Signal;HPM_P1;HPM_P2
2023/10/08 00:00:39;;;;;;;6.75;1.75;;;13.60;98.50;;;;;;25591443;23;20013;-52
2023/10/08 00:10:26;;;;;;;10.05;2.05;;;13.80;97.60;;;;;;25593526;23;20001;-53
2023/10/08 00:20:35;;;;;;;8.70;1.50;;;14.10;97.20;;;;;;25593008;23;20440;-52
2023/10/08 00:30:41;;;;;;;11.20;2.00;;;14.20;97.30;;;;;;25632689;23;20448;-55
2023/10/08 00:40:46;;;;;;;9.80;2.10;;;14.40;96.90;;;;;;25632038;23;20008;-60
2023/10/08 00:50:47;;;;;;;12.70;2.05;;;14.40;97.00;;;;;;25590298;23;20012;-60
2023/10/08 01:00:56;;;;;;;7.82;1.77;;;14.30;97.10;;;;;;25563808;23;20005;-49
2023/10/08 01:11:00;;;;;;;9.60;1.88;;;14.10;97.50;;;;;;25629331;23;20456;-52
2023/10/08 01:21:08;;;;;;;10.27;1.60;;;13.90;98.20;;;;;;25563074;23;20510;-53
2023/10/08 01:31:12;;;;;;;7.33;1.60;;;13.60;99.10;;;;;;25630292;23;20075;-51
2023/10/08 01:41:22;;;;;;;11.30;2.00;;;13.50;99.40;;;;;;25588253;23;20523;-60
2023/10/08 01:51:36;;;;;;;12.93;1.83;;;13.50;98.80;;;;;;25538369;23;20017;-59
2023/10/08 02:01:38;;;;;;;9.93;1.73;;;13.80;98.70;;;;;;25628899;23;20083;-51
2023/10/08 02:11:44;;;;;;;7.57;2.00;;;13.30;99.90;;;;;;25587476;23;20005;-59
2023/10/08 02:21:46;;;;;;;10.20;1.92;;;13.10;99.90;;;;;;25586852;23;20008;-60
2023/10/08 02:31:48;;;;;;;9.00;1.92;;;12.90;99.90;;;;;;25586644;23;20001;-59
2023/10/08 02:41:50;;;;;;;9.18;1.73;;;12.80;99.90;;;;;;25559470;23;20056;-59
2023/10/08 02:51:55;;;;;;;9.18;2.35;;;12.50;99.90;;;;;;25585765;23;20451;-50
2023/10/08 03:01:56;;;;;;;6.30;1.90;;;12.50;99.90;;;;;;25559001;23;20036;-52
2023/10/08 03:11:58;;;;;;;7.35;1.88;;;12.40;99.90;;;;;;25585844;23;20005;-59
2023/10/08 03:22:04;;;;;;;9.80;1.65;;;12.30;99.90;;;;;;25585086;23;20013;-59
2023/10/08 03:32:13;;;;;;;7.80;1.65;;;12.30;99.90;;;;;;25625492;23;20085;-50
2023/10/08 03:42:20;;;;;;;7.00;1.50;;;12.30;99.90;;;;;;25599845;23;20009;-51
2023/10/08 03:52:25;;;;;;;9.15;2.03;;;12.80;99.90;;;;;;25615800;23;20009;-59
2023/10/08 04:02:46;;;;;;;11.30;2.10;;;12.70;99.90;;;;;;25582533;23;20067;-60
2023/10/08 04:12:50;;;;;;;12.93;1.80;;;12.60;99.90;;;;;;25606230;23;20012;-59
2023/10/08 04:22:52;;;;;;;8.32;1.48;;;12.60;99.90;;;;;;25564551;23;20005;-59
2023/10/08 04:32:53;;;;;;;5.93;1.45;;;13.00;99.90;;;;;;25590879;23;20052;-59
2023/10/08 04:42:57;;;;;;;7.55;1.63;;;13.00;99.90;;;;;;25590353;23;20511;-50
2023/10/08 04:52:59;;;;;;;11.70;1.60;;;13.20;99.90;;;;;;25589727;23;20020;-54
2023/10/08 05:03:10;;;;;;;15.57;1.88;;;13.50;99.90;;;;;;25589529;23;20519;-49
2023/10/08 05:23:22;;;;;;;11.50;1.65;;;13.90;99.90;;;;;;25588347;23;20009;-52
2023/10/08 05:33:25;;;;;;;;;;;13.50;99.90;;;;;;25629685;23;20001;-51
2023/10/08 05:53:48;;;;;;;12.20;2.05;;;13.30;99.90;;;;;;25614296;23;20064;-59
2023/10/08 06:04:00;;;;;;;12.05;2.63;;;13.10;99.90;;;;;;25627980;23;20020;-53
2023/10/08 06:14:13;;;;;;;11.65;1.67;;;13.10;99.90;;;;;;25627595;23;20028;-51
2023/10/08 06:24:16;;;;;;;11.90;1.60;;;13.30;99.90;;;;;;25627369;23;20001;-59
2023/10/08 06:34:22;;;;;;;13.20;1.73;;;13.70;99.90;;;;;;25585556;23;20063;-59
2023/10/08 06:44:24;;;;;;;11.55;2.13;;;13.80;99.90;;;;;;25559179;23;20388;-59
2023/10/08 06:54:30;;;;;;;13.60;2.55;;;13.80;99.90;;;;;;25585164;23;20029;-60
2023/10/08 07:04:32;;;;;;;9.77;1.88;;;14.00;99.90;;;;;;25626348;23;20009;-50
2023/10/08 07:14:33;;;;;;;14.15;1.83;;;14.80;99.90;;;;;;25584790;23;20005;-51
2023/10/08 07:24:35;;;;;;;10.18;1.88;;;15.80;99.90;;;;;;25584857;23;20009;-61
2023/10/08 07:34:38;;;;;;;16.75;2.40;;;16.50;99.90;;;;;;25584558;23;20076;-61
2023/10/08 07:44:40;;;;;;;8.38;1.80;;;17.50;99.10;;;;;;25590365;23;20341;-61
2023/10/08 07:54:42;;;;;;;13.23;3.05;;;18.80;99.90;;;;;;25592218;23;20016;-62
2023/10/08 08:04:45;;;;;;;13.38;2.20;;;20.00;97.90;;;;;;25591120;23;20009;-62
2023/10/08 08:14:48;;;;;;;8.68;2.03;;;20.30;98.70;;;;;;25590720;23;20009;-62
2023/10/08 08:24:59;;;;;;;14.35;2.03;;;21.00;96.50;;;;;;25563931;23;20071;-62
2023/10/08 08:35:02;;;;;;;11.35;1.90;;;21.60;95.70;;;;;;25563088;23;20009;-62
2023/10/08 08:45:09;;;;;;;10.65;2.05;;;22.40;93.60;;;;;;25590102;23;20001;-62
2023/10/08 08:55:14;;;;;;;7.90;1.70;;;23.10;91.90;;;;;;25609631;23;20013;-62
2023/10/08 09:05:25;;;;;;;10.93;2.17;;;24.00;88.10;;;;;;25630532;23;20005;-62
2023/10/08 09:15:28;;;;;;;12.80;2.42;;;24.80;91.40;;;;;;25630089;23;20005;-62
2023/10/08 09:25:32;;;;;;;6.25;1.80;;;25.50;85.00;;;;;;25589392;23;20005;-62
2023/10/08 09:35:34;;;;;;;11.60;1.75;;;26.10;85.50;;;;;;25588230;23;20005;-62
2023/10/08 09:45:43;;;;;;;12.13;2.25;;;26.60;89.10;;;;;;25587861;23;20316;-62
2023/10/08 09:55:52;;;;;;;10.68;1.90;;;26.70;88.60;;;;;;25605382;23;20039;-62
2023/10/08 10:05:58;;;;;;;11.43;2.25;;;27.00;81.50;;;;;;25628628;23;20059;-61
2023/10/08 10:16:00;;;;;;;10.60;2.60;;;27.20;81.40;;;;;;25628911;23;20005;-61
2023/10/08 10:26:03;;;;;;;9.75;2.10;;;27.10;83.10;;;;;;25586332;23;20009;-62
2023/10/08 10:36:08;;;;;;;10.93;1.80;;;27.20;82.40;;;;;;25585467;23;20400;-62
2023/10/08 10:56:30;;;;;;;9.50;1.98;;;27.70;77.70;;;;;;25598737;23;20021;-61
2023/10/08 11:06:35;;;;;;;11.38;2.38;;;27.90;81.10;;;;;;25585453;23;20541;-62
2023/10/08 11:16:37;;;;;;;12.98;1.90;;;28.20;75.30;;;;;;25588494;23;20337;-61
2023/10/08 11:26:39;;;;;;;9.20;2.08;;;28.30;76.90;;;;;;25592180;23;20009;-63
2023/10/08 11:36:52;;;;;;;8.52;2.30;;;28.10;82.50;;;;;;25592516;23;20005;-63
2023/10/08 11:47:00;;;;;;;11.98;2.30;;;28.10;79.40;;;;;;25566886;23;20071;-63
2023/10/08 11:57:02;;;;;;;12.55;1.95;;;27.90;79.40;;;;;;25604423;23;20020;-63
2023/10/08 12:07:07;;;;;;;9.50;2.17;;;27.80;77.20;;;;;;25591695;23;20005;-63
2023/10/08 12:17:11;;;;;;;11.88;2.50;;;27.80;74.10;;;;;;25591017;23;20008;-64
2023/10/08 12:27:13;;;;;;;10.93;1.67;;;27.40;76.90;;;;;;25590337;23;20329;-64
2023/10/08 12:37:18;;;;;;;10.40;2.22;;;26.70;78.40;;;;;;25590618;23;20009;-64
2023/10/08 12:47:21;;;;;;;11.68;2.10;;;26.80;76.20;;;;;;25541682;23;20009;-63
2023/10/08 12:57:32;;;;;;;10.52;2.55;;;26.80;79.90;;;;;;25590416;23;20440;-64
2023/10/08 13:07:41;;;;;;;11.65;2.75;;;26.60;82.00;;;;;;25630481;23;20054;-64
2023/10/08 13:17:45;;;;;;;11.55;2.20;;;26.30;85.00;;;;;;25629352;23;20001;-64
2023/10/08 13:27:48;;;;;;;9.20;3.10;;;26.10;82.30;;;;;;25588560;23;20436;-64
2023/10/08 13:37:49;;;;;;;9.65;2.80;;;25.50;81.90;;;;;;25587441;23;20005;-63
2023/10/08 13:47:52;;;;;;;9.50;2.28;;;24.40;82.00;;;;;;25587539;23;20005;-62
2023/10/08 13:57:54;;;;;;;12.93;2.88;;;23.90;83.10;;;;;;25587616;23;20017;-63
2023/10/08 14:07:57;;;;;;;10.70;2.60;;;23.50;84.60;;;;;;25586558;23;20013;-63
2023/10/08 14:18:04;;;;;;;9.27;1.80;;;23.20;81.30;;;;;;25585950;23;20009;-61
2023/10/08 14:28:08;;;;;;;9.95;2.75;;;23.00;86.50;;;;;;25627897;23;20005;-60
2023/10/08 14:48:35;;;;;;;10.93;2.90;;;22.20;93.70;;;;;;25622936;23;20035;-63
2023/10/08 14:58:41;;;;;;;8.40;2.75;;;21.80;94.70;;;;;;25582130;23;20104;-54
2023/10/08 15:08:43;;;;;;;7.55;2.35;;;21.60;94.70;;;;;;25584432;23;20005;-60
2023/10/08 15:18:44;;;;;;;12.32;2.65;;;21.40;93.80;;;;;;25585586;23;20013;-60
2023/10/08 15:28:46;;;;;;;11.32;1.70;;;21.30;92.70;;;;;;25585793;23;20440;-60
2023/10/08 15:38:47;;;;;;;13.60;2.13;;;21.00;92.30;;;;;;25584392;23;20027;-60
2023/10/08 15:48:49;;;;;;;7.90;1.90;;;20.70;93.20;;;;;;25584428;23;20385;-61
2023/10/08 15:58:51;;;;;;;9.43;2.05;;;20.50;94.20;;;;;;25584605;23;20020;-60
2023/10/08 16:08:52;;;;;;;12.13;2.47;;;19.90;94.20;;;;;;25591655;23;20005;-60
2023/10/08 16:18:54;;;;;;;13.80;2.30;;;19.20;95.40;;;;;;25591582;23;20001;-59
2023/10/08 16:28:56;;;;;;;9.68;2.33;;;18.80;94.60;;;;;;25592242;23;20013;-52
2023/10/08 16:38:58;;;;;;;8.38;2.28;;;18.90;91.90;;;;;;25591220;23;20436;-59
2023/10/08 16:48:59;;;;;;;8.98;2.28;;;19.00;91.30;;;;;;25592236;23;20052;-60
2023/10/08 16:59:02;;;;;;;8.30;2.00;;;18.80;91.00;;;;;;25592826;23;20017;-59
2023/10/08 17:09:17;;;;;;;9.68;2.40;;;18.60;90.10;;;;;;25589775;23;20009;-50
2023/10/08 17:19:23;;;;;;;13.90;1.77;;;18.50;90.30;;;;;;25630220;23;20068;-60
2023/10/08 17:29:27;;;;;;;13.00;2.30;;;18.50;90.10;;;;;;25630285;23;20482;-59
2023/10/08 17:39:29;;;;;;;9.02;1.95;;;18.40;89.50;;;;;;25588613;23;20071;-60
2023/10/08 17:49:35;;;;;;;9.57;1.90;;;18.20;89.10;;;;;;25588754;23;20005;-59
2023/10/08 17:59:37;;;;;;;15.25;2.00;;;17.90;90.10;;;;;;25592435;23;20013;-60
2023/10/08 18:09:42;;;;;;;16.40;1.77;;;17.60;89.70;;;;;;25587772;23;20411;-59
2023/10/08 18:19:44;;;;;;;14.85;1.98;;;17.60;89.90;;;;;;25586987;23;20001;-59
2023/10/08 18:29:47;;;;;;;9.65;1.70;;;17.80;89.00;;;;;;25586606;23;20068;-59
2023/10/08 18:39:50;;;;;;;9.05;1.75;;;17.70;88.40;;;;;;25560047;23;20032;-59
2023/10/08 18:49:52;;;;;;;10.25;1.70;;;17.40;89.40;;;;;;25587585;23;20084;-59
2023/10/08 18:59:54;;;;;;;8.90;1.52;;;17.30;90.00;;;;;;25585964;23;20024;-51
2023/10/08 19:09:56;;;;;;;9.90;1.42;;;17.20;89.30;;;;;;25585595;23;20005;-59
2023/10/08 19:19:58;;;;;;;9.40;1.65;;;17.10;90.10;;;;;;25586606;23;20009;-58
2023/10/08 19:30:05;;;;;;;8.80;1.55;;;17.00;90.00;;;;;;25586873;23;20016;-59
2023/10/08 19:40:12;;;;;;;12.68;1.42;;;16.70;90.40;;;;;;25635096;23;20012;-59
2023/10/08 19:50:14;;;;;;;6.75;1.30;;;16.60;90.50;;;;;;25635943;23;20011;-59
2023/10/08 20:00:23;;;;;;;13.10;1.60;;;16.50;90.50;;;;;;25594006;23;20404;-59
2023/10/08 20:10:25;;;;;;;9.70;1.40;;;16.60;90.70;;;;;;25636499;23;20005;-59
2023/10/08 20:20:29;;;;;;;8.45;1.40;;;16.20;90.90;;;;;;25593260;23;20008;-59
2023/10/08 20:30:33;;;;;;;12.68;2.08;;;16.20;91.30;;;;;;25593979;23;20001;-52
2023/10/08 20:40:40;;;;;;;11.95;1.48;;;15.70;92.60;;;;;;25565629;23;20027;-59
2023/10/08 20:50:42;;;;;;;7.88;1.42;;;15.40;92.20;;;;;;25631662;23;20005;-59
2023/10/08 21:00:45;;;;;;;11.27;1.70;;;15.50;92.30;;;;;;25631086;23;20009;-60
2023/10/08 21:10:47;;;;;;;15.32;2.10;;;15.70;91.80;;;;;;25591343;23;20005;-59
2023/10/08 21:20:49;;;;;;;8.60;1.38;;;15.70;91.50;;;;;;25590922;23;20009;-59
2023/10/08 21:30:51;;;;;;;16.63;2.28;;;15.70;92.00;;;;;;25590606;23;20001;-59
2023/10/08 21:41:00;;;;;;;12.80;1.83;;;15.50;92.90;;;;;;25591337;23;20001;-59
2023/10/08 21:51:03;;;;;;;10.93;1.57;;;15.20;93.00;;;;;;25628498;23;20005;-59
2023/10/08 22:01:17;;;;;;;10.15;1.45;;;14.90;93.10;;;;;;25563008;23;20444;-58
2023/10/08 22:11:19;;;;;;;12.98;1.73;;;15.10;92.50;;;;;;25630109;23;20001;-51
2023/10/08 22:21:24;;;;;;;10.80;1.60;;;15.10;92.00;;;;;;25588512;23;20009;-59
2023/10/08 22:31:27;;;;;;;12.43;1.92;;;14.90;93.10;;;;;;25588299;23;20016;-59
2023/10/08 22:41:35;;;;;;;9.65;1.65;;;14.50;93.30;;;;;;25586975;23;20016;-48
2023/10/08 22:51:37;;;;;;;11.70;1.70;;;14.40;94.40;;;;;;25620224;23;20016;-52
2023/10/08 23:01:42;;;;;;;8.73;2.17;;;14.40;94.60;;;;;;25584682;23;20017;-59
2023/10/08 23:11:47;;;;;;;11.85;1.63;;;14.50;94.30;;;;;;25559750;23;20013;-59
2023/10/08 23:21:51;;;;;;;12.55;1.83;;;14.30;94.30;;;;;;25586945;23;20068;-59
2023/10/08 23:31:58;;;;;;;8.90;0.95;;;14.10;94.90;;;;;;25585637;23;20002;-59
2023/10/08 23:42:20;;;;;;;9.07;1.58;;;13.90;95.60;;;;;;25626297;23;20286;-58
2023/10/08 23:52:23;;;;;;;8.18;1.50;;;13.80;94.60;;;;;;25618207;23;20064;-50
